sensor_id;sensor_type;location;lat;lon;timestamp;P1;durP1;ratioP1;P2;durP2;ratioP2
16199;SDS011;8207;52.494;4.654;2022-12-10T00:01:39;81.50;;;31.83;;
16199;SDS011;8207;52.494;4.654;2022-12-10T00:04:07;75.80;;;30.33;;
16199;SDS011;8207;52.494;4.654;2022-12-10T00:06:35;73.60;;;30.57;;
16199;SDS011;8207;52.494;4.654;2022-12-10T00:09:04;72.20;;;30.83;;
16199;SDS011;8207;52.494;4.654;2022-12-10T00:11:36;70.43;;;30.40;;
16199;SDS011;8207;52.494;4.654;2022-12-10T00:14:03;84.10;;;33.20;;
16199;SDS011;8207;52.494;4.654;2022-12-10T00:16:32;79.90;;;31.07;;
16199;SDS011;8207;52.494;4.654;2022-12-10T00:19:01;79.13;;;32.20;;
16199;SDS011;8207;52.494;4.654;2022-12-10T00:21:32;76.03;;;31.27;;
16199;SDS011;8207;52.494;4.654;2022-12-10T00:24:01;77.17;;;31.13;;
16199;SDS011;8207;52.494;4.654;2022-12-10T00:26:29;75.80;;;30.53;;
16199;SDS011;8207;52.494;4.654;2022-12-10T00:28:59;82.43;;;32.27;;
16199;SDS011;8207;52.494;4.654;2022-12-10T00:31:27;81.60;;;29.93;;
16199;SDS011;8207;52.494;4.654;2022-12-10T00:33:56;79.27;;;29.73;;
16199;SDS011;8207;52.494;4.654;2022-12-10T00:36:26;78.17;;;29.67;;
16199;SDS011;8207;52.494;4.654;2022-12-10T00:38:54;83.73;;;29.43;;
16199;SDS011;8207;52.494;4.654;2022-12-10T00:41:21;81.93;;;29.13;;
16199;SDS011;8207;52.494;4.654;2022-12-10T00:43:48;86.03;;;31.53;;
16199;SDS011;8207;52.494;4.654;2022-12-10T00:46:16;83.93;;;31.00;;
16199;SDS011;8207;52.494;4.654;2022-12-10T00:48:43;82.03;;;30.87;;
16199;SDS011;8207;52.494;4.654;2022-12-10T00:51:11;76.67;;;26.30;;
16199;SDS011;8207;52.494;4.654;2022-12-10T00:53:42;71.90;;;25.80;;
16199;SDS011;8207;52.494;4.654;2022-12-10T00:56:10;74.53;;;28.77;;
16199;SDS011;8207;52.494;4.654;2022-12-10T00:58:39;77.83;;;29.87;;
16199;SDS011;8207;52.494;4.654;2022-12-10T01:01:07;73.97;;;27.07;;
16199;SDS011;8207;52.494;4.654;2022-12-10T01:03:35;84.90;;;31.53;;
16199;SDS011;8207;52.494;4.654;2022-12-10T01:06:09;85.07;;;29.87;;
16199;SDS011;8207;52.494;4.654;2022-12-10T01:08:38;84.13;;;30.17;;
16199;SDS011;8207;52.494;4.654;2022-12-10T01:11:07;83.60;;;29.83;;
16199;SDS011;8207;52.494;4.654;2022-12-10T01:13:36;80.53;;;28.73;;
16199;SDS011;8207;52.494;4.654;2022-12-10T01:16:03;81.00;;;27.80;;
16199;SDS011;8207;52.494;4.654;2022-12-10T01:18:31;74.03;;;28.43;;
16199;SDS011;8207;52.494;4.654;2022-12-10T01:21:02;62.97;;;25.70;;
16199;SDS011;8207;52.494;4.654;2022-12-10T01:23:31;87.03;;;29.10;;
16199;SDS011;8207;52.494;4.654;2022-12-10T01:25:59;63.27;;;26.70;;
16199;SDS011;8207;52.494;4.654;2022-12-10T01:28:29;75.60;;;26.63;;
16199;SDS011;8207;52.494;4.654;2022-12-10T01:30:59;72.27;;;26.37;;
16199;SDS011;8207;52.494;4.654;2022-12-10T01:33:27;94.30;;;29.93;;
16199;SDS011;8207;52.494;4.654;2022-12-10T01:35:55;70.07;;;26.53;;
16199;SDS011;8207;52.494;4.654;2022-12-10T01:38:22;95.50;;;29.03;;
16199;SDS011;8207;52.494;4.654;2022-12-10T01:40:49;62.93;;;25.97;;
16199;SDS011;8207;52.494;4.654;2022-12-10T01:43:16;69.93;;;25.10;;
16199;SDS011;8207;52.494;4.654;2022-12-10T01:45:44;63.77;;;25.73;;
16199;SDS011;8207;52.494;4.654;2022-12-10T01:48:11;69.10;;;27.90;;
16199;SDS011;8207;52.494;4.654;2022-12-10T01:50:38;62.97;;;26.57;;
16199;SDS011;8207;52.494;4.654;2022-12-10T01:53:05;57.90;;;24.93;;
16199;SDS011;8207;52.494;4.654;2022-12-10T01:55:41;71.27;;;26.37;;
16199;SDS011;8207;52.494;4.654;2022-12-10T01:58:10;63.43;;;25.57;;
16199;SDS011;8207;52.494;4.654;2022-12-10T02:00:40;95.17;;;30.63;;
16199;SDS011;8207;52.494;4.654;2022-12-10T02:03:16;87.30;;;29.43;;
16199;SDS011;8207;52.494;4.654;2022-12-10T02:05:49;75.23;;;27.20;;
16199;SDS011;8207;52.494;4.654;2022-12-10T02:08:23;78.97;;;26.20;;
16199;SDS011;8207;52.494;4.654;2022-12-10T02:10:57;84.03;;;29.20;;
16199;SDS011;8207;52.494;4.654;2022-12-10T02:13:33;71.70;;;27.47;;
16199;SDS011;8207;52.494;4.654;2022-12-10T02:16:08;88.63;;;27.37;;
16199;SDS011;8207;52.494;4.654;2022-12-10T02:18:41;86.77;;;28.70;;
16199;SDS011;8207;52.494;4.654;2022-12-10T02:21:14;96.53;;;28.40;;
16199;SDS011;8207;52.494;4.654;2022-12-10T02:23:45;73.17;;;27.47;;
16199;SDS011;8207;52.494;4.654;2022-12-10T02:26:16;65.27;;;25.27;;
16199;SDS011;8207;52.494;4.654;2022-12-10T02:28:49;80.43;;;29.43;;
16199;SDS011;8207;52.494;4.654;2022-12-10T02:31:24;69.03;;;26.77;;
16199;SDS011;8207;52.494;4.654;2022-12-10T02:33:53;82.57;;;28.33;;
16199;SDS011;8207;52.494;4.654;2022-12-10T02:36:23;75.67;;;29.10;;
16199;SDS011;8207;52.494;4.654;2022-12-10T02:38:53;67.50;;;28.03;;
16199;SDS011;8207;52.494;4.654;2022-12-10T02:41:23;85.73;;;30.30;;
16199;SDS011;8207;52.494;4.654;2022-12-10T02:43:54;79.67;;;29.97;;
16199;SDS011;8207;52.494;4.654;2022-12-10T02:46:25;75.50;;;28.93;;
16199;SDS011;8207;52.494;4.654;2022-12-10T02:48:54;78.93;;;29.83;;
16199;SDS011;8207;52.494;4.654;2022-12-10T02:51:23;74.13;;;30.90;;
16199;SDS011;8207;52.494;4.654;2022-12-10T02:53:58;82.33;;;31.60;;
16199;SDS011;8207;52.494;4.654;2022-12-10T02:56:27;84.00;;;33.50;;
16199;SDS011;8207;52.494;4.654;2022-12-10T02:59:03;83.33;;;32.03;;
16199;SDS011;8207;52.494;4.654;2022-12-10T03:01:41;86.13;;;31.37;;
16199;SDS011;8207;52.494;4.654;2022-12-10T03:04:17;88.90;;;33.53;;
16199;SDS011;8207;52.494;4.654;2022-12-10T03:06:51;90.23;;;35.50;;
16199;SDS011;8207;52.494;4.654;2022-12-10T03:09:20;92.07;;;34.77;;
16199;SDS011;8207;52.494;4.654;2022-12-10T03:11:51;97.93;;;36.23;;
16199;SDS011;8207;52.494;4.654;2022-12-10T03:14:25;101.20;;;37.67;;
16199;SDS011;8207;52.494;4.654;2022-12-10T03:16:58;108.07;;;39.03;;
16199;SDS011;8207;52.494;4.654;2022-12-10T03:19:26;103.87;;;35.40;;
16199;SDS011;8207;52.494;4.654;2022-12-10T03:21:58;131.60;;;42.77;;
16199;SDS011;8207;52.494;4.654;2022-12-10T03:24:28;105.33;;;37.70;;
16199;SDS011;8207;52.494;4.654;2022-12-10T03:26:56;110.47;;;40.37;;
16199;SDS011;8207;52.494;4.654;2022-12-10T03:29:25;100.27;;;38.87;;
16199;SDS011;8207;52.494;4.654;2022-12-10T03:31:58;102.70;;;37.90;;
16199;SDS011;8207;52.494;4.654;2022-12-10T03:34:25;99.33;;;39.27;;
16199;SDS011;8207;52.494;4.654;2022-12-10T03:36:53;93.60;;;36.77;;
16199;SDS011;8207;52.494;4.654;2022-12-10T03:39:20;86.07;;;34.70;;
16199;SDS011;8207;52.494;4.654;2022-12-10T03:41:47;102.67;;;38.50;;
16199;SDS011;8207;52.494;4.654;2022-12-10T03:44:19;102.63;;;36.83;;
16199;SDS011;8207;52.494;4.654;2022-12-10T03:46:53;158.30;;;40.80;;
16199;SDS011;8207;52.494;4.654;2022-12-10T03:49:21;95.93;;;39.07;;
16199;SDS011;8207;52.494;4.654;2022-12-10T03:51:48;89.90;;;37.70;;
16199;SDS011;8207;52.494;4.654;2022-12-10T03:54:15;102.70;;;37.80;;
16199;SDS011;8207;52.494;4.654;2022-12-10T03:56:42;82.70;;;33.13;;
16199;SDS011;8207;52.494;4.654;2022-12-10T03:59:09;115.70;;;34.97;;
16199;SDS011;8207;52.494;4.654;2022-12-10T04:01:36;121.90;;;36.43;;
16199;SDS011;8207;52.494;4.654;2022-12-10T04:04:03;69.83;;;31.33;;
16199;SDS011;8207;52.494;4.654;2022-12-10T04:06:31;83.17;;;32.70;;
16199;SDS011;8207;52.494;4.654;2022-12-10T04:08:58;134.73;;;35.60;;
16199;SDS011;8207;52.494;4.654;2022-12-10T04:11:25;105.93;;;35.43;;
16199;SDS011;8207;52.494;4.654;2022-12-10T04:13:52;71.90;;;29.07;;
16199;SDS011;8207;52.494;4.654;2022-12-10T04:16:37;152.97;;;34.30;;
16199;SDS011;8207;52.494;4.654;2022-12-10T04:19:04;57.83;;;26.67;;
16199;SDS011;8207;52.494;4.654;2022-12-10T04:21:35;52.13;;;26.17;;
16199;SDS011;8207;52.494;4.654;2022-12-10T04:24:21;115.80;;;28.90;;
16199;SDS011;8207;52.494;4.654;2022-12-10T04:27:09;169.67;;;30.63;;
16199;SDS011;8207;52.494;4.654;2022-12-10T04:29:37;288.57;;;42.20;;
16199;SDS011;8207;52.494;4.654;2022-12-10T04:32:05;74.93;;;28.33;;
16199;SDS011;8207;52.494;4.654;2022-12-10T04:34:32;115.70;;;29.33;;
16199;SDS011;8207;52.494;4.654;2022-12-10T04:37:00;49.50;;;26.50;;
16199;SDS011;8207;52.494;4.654;2022-12-10T04:39:28;54.30;;;23.97;;
16199;SDS011;8207;52.494;4.654;2022-12-10T04:41:56;81.80;;;26.97;;
16199;SDS011;8207;52.494;4.654;2022-12-10T04:44:23;52.43;;;24.23;;
16199;SDS011;8207;52.494;4.654;2022-12-10T04:46:50;82.30;;;28.00;;
16199;SDS011;8207;52.494;4.654;2022-12-10T04:49:17;47.63;;;23.53;;
16199;SDS011;8207;52.494;4.654;2022-12-10T04:51:44;93.90;;;27.27;;
16199;SDS011;8207;52.494;4.654;2022-12-10T04:54:13;42.60;;;23.73;;
16199;SDS011;8207;52.494;4.654;2022-12-10T04:56:40;55.07;;;25.20;;
16199;SDS011;8207;52.494;4.654;2022-12-10T04:59:07;52.63;;;23.47;;
16199;SDS011;8207;52.494;4.654;2022-12-10T05:01:35;122.10;;;28.97;;
16199;SDS011;8207;52.494;4.654;2022-12-10T05:04:04;52.07;;;25.03;;
16199;SDS011;8207;52.494;4.654;2022-12-10T05:06:32;59.20;;;27.47;;
16199;SDS011;8207;52.494;4.654;2022-12-10T05:08:59;63.07;;;26.53;;
16199;SDS011;8207;52.494;4.654;2022-12-10T05:11:28;81.23;;;25.50;;
16199;SDS011;8207;52.494;4.654;2022-12-10T05:13:57;49.63;;;24.77;;
16199;SDS011;8207;52.494;4.654;2022-12-10T05:16:25;59.53;;;25.87;;
16199;SDS011;8207;52.494;4.654;2022-12-10T05:18:53;58.73;;;25.63;;
16199;SDS011;8207;52.494;4.654;2022-12-10T05:21:22;67.03;;;26.50;;
16199;SDS011;8207;52.494;4.654;2022-12-10T05:23:51;136.50;;;27.03;;
16199;SDS011;8207;52.494;4.654;2022-12-10T05:26:18;68.57;;;23.63;;
16199;SDS011;8207;52.494;4.654;2022-12-10T05:28:47;59.33;;;24.80;;
16199;SDS011;8207;52.494;4.654;2022-12-10T05:31:16;55.67;;;24.73;;
16199;SDS011;8207;52.494;4.654;2022-12-10T05:33:44;43.87;;;23.40;;
16199;SDS011;8207;52.494;4.654;2022-12-10T05:36:14;60.33;;;23.80;;
16199;SDS011;8207;52.494;4.654;2022-12-10T05:38:43;72.47;;;24.27;;
16199;SDS011;8207;52.494;4.654;2022-12-10T05:41:11;50.40;;;23.67;;
16199;SDS011;8207;52.494;4.654;2022-12-10T05:43:40;44.73;;;21.17;;
16199;SDS011;8207;52.494;4.654;2022-12-10T05:46:10;44.77;;;21.77;;
16199;SDS011;8207;52.494;4.654;2022-12-10T05:48:39;58.70;;;23.60;;
16199;SDS011;8207;52.494;4.654;2022-12-10T05:51:06;67.63;;;22.97;;
16199;SDS011;8207;52.494;4.654;2022-12-10T05:53:35;68.43;;;23.20;;
16199;SDS011;8207;52.494;4.654;2022-12-10T05:56:03;47.70;;;24.00;;
16199;SDS011;8207;52.494;4.654;2022-12-10T05:58:32;56.47;;;23.67;;
16199;SDS011;8207;52.494;4.654;2022-12-10T06:01:00;51.00;;;22.80;;
16199;SDS011;8207;52.494;4.654;2022-12-10T06:03:33;63.50;;;23.80;;
16199;SDS011;8207;52.494;4.654;2022-12-10T06:06:00;50.57;;;24.70;;
16199;SDS011;8207;52.494;4.654;2022-12-10T06:08:27;83.60;;;24.13;;
16199;SDS011;8207;52.494;4.654;2022-12-10T06:10:54;46.50;;;22.07;;
16199;SDS011;8207;52.494;4.654;2022-12-10T06:13:22;50.67;;;24.53;;
16199;SDS011;8207;52.494;4.654;2022-12-10T06:15:49;39.83;;;22.03;;
16199;SDS011;8207;52.494;4.654;2022-12-10T06:18:16;46.70;;;22.93;;
16199;SDS011;8207;52.494;4.654;2022-12-10T06:20:45;46.77;;;24.03;;
16199;SDS011;8207;52.494;4.654;2022-12-10T06:23:11;43.13;;;22.13;;
16199;SDS011;8207;52.494;4.654;2022-12-10T06:25:38;83.70;;;26.90;;
16199;SDS011;8207;52.494;4.654;2022-12-10T06:28:06;50.97;;;24.10;;
16199;SDS011;8207;52.494;4.654;2022-12-10T06:30:34;51.03;;;23.50;;
16199;SDS011;8207;52.494;4.654;2022-12-10T06:33:01;44.17;;;22.93;;
16199;SDS011;8207;52.494;4.654;2022-12-10T06:35:28;52.97;;;24.63;;
16199;SDS011;8207;52.494;4.654;2022-12-10T06:37:57;56.23;;;24.90;;
16199;SDS011;8207;52.494;4.654;2022-12-10T06:40:24;50.13;;;24.77;;
16199;SDS011;8207;52.494;4.654;2022-12-10T06:42:51;57.80;;;25.93;;
16199;SDS011;8207;52.494;4.654;2022-12-10T06:45:18;90.73;;;27.07;;
16199;SDS011;8207;52.494;4.654;2022-12-10T06:47:45;50.57;;;24.03;;
16199;SDS011;8207;52.494;4.654;2022-12-10T06:50:12;58.00;;;24.60;;
16199;SDS011;8207;52.494;4.654;2022-12-10T06:52:39;46.50;;;24.37;;
16199;SDS011;8207;52.494;4.654;2022-12-10T06:55:08;46.60;;;23.93;;
16199;SDS011;8207;52.494;4.654;2022-12-10T06:57:35;94.87;;;25.37;;
16199;SDS011;8207;52.494;4.654;2022-12-10T07:00:02;74.33;;;24.87;;
16199;SDS011;8207;52.494;4.654;2022-12-10T07:02:30;83.47;;;24.87;;
16199;SDS011;8207;52.494;4.654;2022-12-10T07:04:57;43.33;;;22.63;;
16199;SDS011;8207;52.494;4.654;2022-12-10T07:07:24;74.03;;;24.83;;
16199;SDS011;8207;52.494;4.654;2022-12-10T07:09:51;45.27;;;21.77;;
16199;SDS011;8207;52.494;4.654;2022-12-10T07:12:19;42.63;;;22.40;;
16199;SDS011;8207;52.494;4.654;2022-12-10T07:14:46;63.60;;;23.13;;
16199;SDS011;8207;52.494;4.654;2022-12-10T07:17:13;64.47;;;25.03;;
16199;SDS011;8207;52.494;4.654;2022-12-10T07:19:40;61.03;;;24.53;;
16199;SDS011;8207;52.494;4.654;2022-12-10T07:22:07;54.80;;;22.90;;
16199;SDS011;8207;52.494;4.654;2022-12-10T07:24:34;52.67;;;23.07;;
16199;SDS011;8207;52.494;4.654;2022-12-10T07:27:03;60.17;;;24.23;;
16199;SDS011;8207;52.494;4.654;2022-12-10T07:29:32;63.47;;;25.77;;
16199;SDS011;8207;52.494;4.654;2022-12-10T07:31:59;49.67;;;23.07;;
16199;SDS011;8207;52.494;4.654;2022-12-10T07:34:26;52.10;;;23.53;;
16199;SDS011;8207;52.494;4.654;2022-12-10T07:36:53;111.17;;;27.60;;
16199;SDS011;8207;52.494;4.654;2022-12-10T07:39:20;77.47;;;27.13;;
16199;SDS011;8207;52.494;4.654;2022-12-10T07:41:48;58.00;;;24.63;;
16199;SDS011;8207;52.494;4.654;2022-12-10T07:44:16;40.57;;;21.60;;
16199;SDS011;8207;52.494;4.654;2022-12-10T07:46:46;52.90;;;24.37;;
16199;SDS011;8207;52.494;4.654;2022-12-10T07:49:13;89.40;;;25.73;;
16199;SDS011;8207;52.494;4.654;2022-12-10T07:51:43;87.83;;;27.40;;
16199;SDS011;8207;52.494;4.654;2022-12-10T07:54:10;52.40;;;23.90;;
16199;SDS011;8207;52.494;4.654;2022-12-10T07:56:37;81.03;;;27.63;;
16199;SDS011;8207;52.494;4.654;2022-12-10T07:59:04;53.67;;;25.67;;
16199;SDS011;8207;52.494;4.654;2022-12-10T08:01:31;72.97;;;26.03;;
16199;SDS011;8207;52.494;4.654;2022-12-10T08:04:00;66.60;;;26.20;;
16199;SDS011;8207;52.494;4.654;2022-12-10T08:06:27;83.83;;;25.93;;
16199;SDS011;8207;52.494;4.654;2022-12-10T08:08:55;61.00;;;25.60;;
16199;SDS011;8207;52.494;4.654;2022-12-10T08:11:23;49.37;;;24.03;;
16199;SDS011;8207;52.494;4.654;2022-12-10T08:13:51;57.90;;;24.20;;
16199;SDS011;8207;52.494;4.654;2022-12-10T08:16:25;91.47;;;27.67;;
16199;SDS011;8207;52.494;4.654;2022-12-10T08:18:54;45.07;;;23.20;;
16199;SDS011;8207;52.494;4.654;2022-12-10T08:21:24;41.77;;;22.77;;
16199;SDS011;8207;52.494;4.654;2022-12-10T08:23:53;44.73;;;22.43;;
16199;SDS011;8207;52.494;4.654;2022-12-10T08:26:21;65.63;;;26.03;;
16199;SDS011;8207;52.494;4.654;2022-12-10T08:28:49;43.17;;;22.77;;
16199;SDS011;8207;52.494;4.654;2022-12-10T08:31:17;56.10;;;24.83;;
16199;SDS011;8207;52.494;4.654;2022-12-10T08:33:45;81.93;;;25.17;;
16199;SDS011;8207;52.494;4.654;2022-12-10T08:36:13;56.63;;;25.70;;
16199;SDS011;8207;52.494;4.654;2022-12-10T08:38:43;59.80;;;25.20;;
16199;SDS011;8207;52.494;4.654;2022-12-10T08:41:12;64.20;;;23.87;;
16199;SDS011;8207;52.494;4.654;2022-12-10T08:43:41;50.97;;;24.30;;
16199;SDS011;8207;52.494;4.654;2022-12-10T08:46:08;53.73;;;25.30;;
16199;SDS011;8207;52.494;4.654;2022-12-10T08:48:36;54.03;;;25.20;;
16199;SDS011;8207;52.494;4.654;2022-12-10T08:51:04;89.40;;;27.53;;
16199;SDS011;8207;52.494;4.654;2022-12-10T08:53:32;108.77;;;27.90;;
16199;SDS011;8207;52.494;4.654;2022-12-10T08:56:01;63.57;;;23.67;;
16199;SDS011;8207;52.494;4.654;2022-12-10T08:58:28;91.50;;;28.73;;
16199;SDS011;8207;52.494;4.654;2022-12-10T09:00:55;81.10;;;25.13;;
16199;SDS011;8207;52.494;4.654;2022-12-10T09:03:24;78.87;;;25.10;;
16199;SDS011;8207;52.494;4.654;2022-12-10T09:05:50;84.83;;;26.53;;
16199;SDS011;8207;52.494;4.654;2022-12-10T09:08:17;51.37;;;22.63;;
16199;SDS011;8207;52.494;4.654;2022-12-10T09:10:44;67.67;;;26.17;;
16199;SDS011;8207;52.494;4.654;2022-12-10T09:13:12;53.07;;;24.47;;
16199;SDS011;8207;52.494;4.654;2022-12-10T09:15:39;79.37;;;26.47;;
16199;SDS011;8207;52.494;4.654;2022-12-10T09:18:06;65.13;;;25.40;;
16199;SDS011;8207;52.494;4.654;2022-12-10T09:20:33;75.67;;;24.47;;
16199;SDS011;8207;52.494;4.654;2022-12-10T09:23:02;54.83;;;24.37;;
16199;SDS011;8207;52.494;4.654;2022-12-10T09:25:29;55.30;;;25.80;;
16199;SDS011;8207;52.494;4.654;2022-12-10T09:27:56;70.97;;;26.40;;
16199;SDS011;8207;52.494;4.654;2022-12-10T09:30:24;85.47;;;27.23;;
16199;SDS011;8207;52.494;4.654;2022-12-10T09:32:51;68.87;;;25.97;;
16199;SDS011;8207;52.494;4.654;2022-12-10T09:35:18;100.57;;;27.63;;
16199;SDS011;8207;52.494;4.654;2022-12-10T09:37:45;84.10;;;25.17;;
16199;SDS011;8207;52.494;4.654;2022-12-10T09:40:14;49.00;;;23.07;;
16199;SDS011;8207;52.494;4.654;2022-12-10T09:42:44;70.90;;;23.80;;
16199;SDS011;8207;52.494;4.654;2022-12-10T09:45:18;86.90;;;26.00;;
16199;SDS011;8207;52.494;4.654;2022-12-10T09:47:55;60.73;;;24.13;;
16199;SDS011;8207;52.494;4.654;2022-12-10T09:50:29;46.67;;;22.20;;
16199;SDS011;8207;52.494;4.654;2022-12-10T09:53:01;57.47;;;24.20;;
16199;SDS011;8207;52.494;4.654;2022-12-10T09:55:32;58.37;;;24.07;;
16199;SDS011;8207;52.494;4.654;2022-12-10T09:58:04;55.50;;;24.57;;
16199;SDS011;8207;52.494;4.654;2022-12-10T10:00:35;55.00;;;23.20;;
16199;SDS011;8207;52.494;4.654;2022-12-10T10:03:05;65.57;;;27.90;;
16199;SDS011;8207;52.494;4.654;2022-12-10T10:05:39;64.10;;;24.70;;
16199;SDS011;8207;52.494;4.654;2022-12-10T10:08:12;90.53;;;28.27;;
16199;SDS011;8207;52.494;4.654;2022-12-10T10:10:45;86.83;;;27.20;;
16199;SDS011;8207;52.494;4.654;2022-12-10T10:13:14;65.10;;;25.90;;
16199;SDS011;8207;52.494;4.654;2022-12-10T10:15:45;71.57;;;28.73;;
16199;SDS011;8207;52.494;4.654;2022-12-10T10:18:16;55.77;;;25.03;;
16199;SDS011;8207;52.494;4.654;2022-12-10T10:20:49;77.60;;;27.10;;
16199;SDS011;8207;52.494;4.654;2022-12-10T10:23:16;59.13;;;25.17;;
16199;SDS011;8207;52.494;4.654;2022-12-10T10:25:43;64.67;;;26.87;;
16199;SDS011;8207;52.494;4.654;2022-12-10T10:28:11;70.00;;;26.77;;
16199;SDS011;8207;52.494;4.654;2022-12-10T10:30:42;84.13;;;27.47;;
16199;SDS011;8207;52.494;4.654;2022-12-10T10:33:11;78.87;;;28.13;;
16199;SDS011;8207;52.494;4.654;2022-12-10T10:35:44;71.67;;;26.57;;
16199;SDS011;8207;52.494;4.654;2022-12-10T10:38:15;78.40;;;29.60;;
16199;SDS011;8207;52.494;4.654;2022-12-10T10:40:46;60.03;;;27.43;;
16199;SDS011;8207;52.494;4.654;2022-12-10T10:43:18;50.37;;;23.63;;
16199;SDS011;8207;52.494;4.654;2022-12-10T10:45:47;55.63;;;25.77;;
16199;SDS011;8207;52.494;4.654;2022-12-10T10:48:18;59.33;;;27.00;;
16199;SDS011;8207;52.494;4.654;2022-12-10T10:50:48;64.07;;;28.53;;
16199;SDS011;8207;52.494;4.654;2022-12-10T10:53:20;63.13;;;27.37;;
16199;SDS011;8207;52.494;4.654;2022-12-10T10:55:49;76.03;;;29.40;;
16199;SDS011;8207;52.494;4.654;2022-12-10T10:58:17;70.13;;;28.27;;
16199;SDS011;8207;52.494;4.654;2022-12-10T11:00:55;76.20;;;30.03;;
16199;SDS011;8207;52.494;4.654;2022-12-10T11:03:25;64.27;;;28.03;;
16199;SDS011;8207;52.494;4.654;2022-12-10T11:05:55;65.77;;;28.53;;
16199;SDS011;8207;52.494;4.654;2022-12-10T11:08:24;57.07;;;27.33;;
16199;SDS011;8207;52.494;4.654;2022-12-10T11:10:56;75.63;;;28.60;;
16199;SDS011;8207;52.494;4.654;2022-12-10T11:13:28;66.73;;;27.83;;
16199;SDS011;8207;52.494;4.654;2022-12-10T11:15:58;68.30;;;30.97;;
16199;SDS011;8207;52.494;4.654;2022-12-10T11:18:32;69.90;;;29.83;;
16199;SDS011;8207;52.494;4.654;2022-12-10T11:21:03;63.47;;;28.43;;
16199;SDS011;8207;52.494;4.654;2022-12-10T11:23:35;65.70;;;27.43;;
16199;SDS011;8207;52.494;4.654;2022-12-10T11:29:04;61.37;;;26.93;;
16199;SDS011;8207;52.494;4.654;2022-12-10T11:31:47;70.60;;;30.27;;
16199;SDS011;8207;52.494;4.654;2022-12-10T11:34:27;74.10;;;30.17;;
16199;SDS011;8207;52.494;4.654;2022-12-10T11:37:03;72.80;;;31.73;;
16199;SDS011;8207;52.494;4.654;2022-12-10T11:39:46;64.80;;;29.80;;
16199;SDS011;8207;52.494;4.654;2022-12-10T11:42:24;72.10;;;29.73;;
16199;SDS011;8207;52.494;4.654;2022-12-10T11:45:06;64.40;;;29.77;;
16199;SDS011;8207;52.494;4.654;2022-12-10T11:47:42;66.47;;;28.83;;
16199;SDS011;8207;52.494;4.654;2022-12-10T11:50:19;63.83;;;27.80;;
16199;SDS011;8207;52.494;4.654;2022-12-10T11:53:04;68.67;;;31.33;;
16199;SDS011;8207;52.494;4.654;2022-12-10T11:55:46;75.10;;;29.43;;
16199;SDS011;8207;52.494;4.654;2022-12-10T11:58:35;87.90;;;33.97;;
16199;SDS011;8207;52.494;4.654;2022-12-10T12:01:33;65.63;;;29.00;;
16199;SDS011;8207;52.494;4.654;2022-12-10T12:04:19;68.40;;;29.70;;
16199;SDS011;8207;52.494;4.654;2022-12-10T12:09:57;74.43;;;33.57;;
16199;SDS011;8207;52.494;4.654;2022-12-10T12:12:44;74.63;;;31.57;;
16199;SDS011;8207;52.494;4.654;2022-12-10T12:15:21;70.40;;;29.50;;
16199;SDS011;8207;52.494;4.654;2022-12-10T12:17:55;78.63;;;31.40;;
16199;SDS011;8207;52.494;4.654;2022-12-10T12:20:25;73.70;;;32.20;;
16199;SDS011;8207;52.494;4.654;2022-12-10T12:22:58;65.33;;;29.73;;
16199;SDS011;8207;52.494;4.654;2022-12-10T12:25:34;62.50;;;26.83;;
16199;SDS011;8207;52.494;4.654;2022-12-10T12:28:04;57.97;;;27.17;;
16199;SDS011;8207;52.494;4.654;2022-12-10T12:30:37;65.80;;;30.77;;
16199;SDS011;8207;52.494;4.654;2022-12-10T12:33:09;71.07;;;29.43;;
16199;SDS011;8207;52.494;4.654;2022-12-10T12:35:40;60.03;;;28.10;;
16199;SDS011;8207;52.494;4.654;2022-12-10T12:38:19;67.77;;;29.90;;
16199;SDS011;8207;52.494;4.654;2022-12-10T12:40:55;65.80;;;30.10;;
16199;SDS011;8207;52.494;4.654;2022-12-10T12:43:28;69.00;;;31.57;;
16199;SDS011;8207;52.494;4.654;2022-12-10T12:46:05;58.47;;;27.57;;
16199;SDS011;8207;52.494;4.654;2022-12-10T12:48:38;72.03;;;32.70;;
16199;SDS011;8207;52.494;4.654;2022-12-10T12:51:12;67.70;;;31.60;;
16199;SDS011;8207;52.494;4.654;2022-12-10T12:53:45;71.33;;;31.30;;
16199;SDS011;8207;52.494;4.654;2022-12-10T12:56:16;67.10;;;30.30;;
16199;SDS011;8207;52.494;4.654;2022-12-10T12:58:55;76.70;;;30.77;;
16199;SDS011;8207;52.494;4.654;2022-12-10T13:01:30;66.73;;;29.67;;
16199;SDS011;8207;52.494;4.654;2022-12-10T13:04:02;73.00;;;33.67;;
16199;SDS011;8207;52.494;4.654;2022-12-10T13:06:30;86.37;;;34.20;;
16199;SDS011;8207;52.494;4.654;2022-12-10T13:15:01;80.07;;;32.50;;
16199;SDS011;8207;52.494;4.654;2022-12-10T13:17:59;93.00;;;33.90;;
16199;SDS011;8207;52.494;4.654;2022-12-10T13:20:29;68.97;;;28.90;;
16199;SDS011;8207;52.494;4.654;2022-12-10T13:23:00;76.23;;;32.43;;
16199;SDS011;8207;52.494;4.654;2022-12-10T13:25:42;71.60;;;33.17;;
16199;SDS011;8207;52.494;4.654;2022-12-10T13:28:27;72.67;;;31.10;;
16199;SDS011;8207;52.494;4.654;2022-12-10T13:31:07;71.60;;;31.03;;
16199;SDS011;8207;52.494;4.654;2022-12-10T13:33:45;74.93;;;31.57;;
16199;SDS011;8207;52.494;4.654;2022-12-10T13:36:19;74.97;;;29.83;;
16199;SDS011;8207;52.494;4.654;2022-12-10T13:45:23;75.67;;;33.50;;
16199;SDS011;8207;52.494;4.654;2022-12-10T13:48:07;77.87;;;32.37;;
16199;SDS011;8207;52.494;4.654;2022-12-10T13:50:59;79.63;;;32.93;;
16199;SDS011;8207;52.494;4.654;2022-12-10T13:54:04;78.87;;;33.57;;
16199;SDS011;8207;52.494;4.654;2022-12-10T13:56:48;77.47;;;32.93;;
16199;SDS011;8207;52.494;4.654;2022-12-10T13:59:25;83.80;;;34.83;;
16199;SDS011;8207;52.494;4.654;2022-12-10T14:02:00;78.33;;;33.93;;
16199;SDS011;8207;52.494;4.654;2022-12-10T14:04:49;77.23;;;34.77;;
16199;SDS011;8207;52.494;4.654;2022-12-10T14:07:30;98.00;;;38.50;;
16199;SDS011;8207;52.494;4.654;2022-12-10T14:09:58;85.10;;;36.47;;
16199;SDS011;8207;52.494;4.654;2022-12-10T14:12:28;81.83;;;35.80;;
16199;SDS011;8207;52.494;4.654;2022-12-10T14:14:59;80.13;;;35.60;;
16199;SDS011;8207;52.494;4.654;2022-12-10T14:17:31;79.47;;;34.07;;
16199;SDS011;8207;52.494;4.654;2022-12-10T14:20:01;84.33;;;37.40;;
16199;SDS011;8207;52.494;4.654;2022-12-10T14:22:30;75.73;;;33.47;;
16199;SDS011;8207;52.494;4.654;2022-12-10T14:25:00;82.83;;;34.53;;
16199;SDS011;8207;52.494;4.654;2022-12-10T14:27:29;77.10;;;33.27;;
16199;SDS011;8207;52.494;4.654;2022-12-10T14:30:01;91.07;;;36.03;;
16199;SDS011;8207;52.494;4.654;2022-12-10T14:32:31;83.77;;;35.90;;
16199;SDS011;8207;52.494;4.654;2022-12-10T14:35:02;76.97;;;35.63;;
16199;SDS011;8207;52.494;4.654;2022-12-10T14:37:33;90.27;;;35.97;;
16199;SDS011;8207;52.494;4.654;2022-12-10T14:40:03;83.97;;;35.23;;
16199;SDS011;8207;52.494;4.654;2022-12-10T14:42:32;83.40;;;36.00;;
16199;SDS011;8207;52.494;4.654;2022-12-10T14:45:02;90.00;;;35.27;;
16199;SDS011;8207;52.494;4.654;2022-12-10T14:47:33;92.37;;;36.50;;
16199;SDS011;8207;52.494;4.654;2022-12-10T14:50:05;88.47;;;34.97;;
16199;SDS011;8207;52.494;4.654;2022-12-10T14:52:38;107.53;;;39.03;;
16199;SDS011;8207;52.494;4.654;2022-12-10T14:55:11;91.77;;;38.53;;
16199;SDS011;8207;52.494;4.654;2022-12-10T14:57:39;92.37;;;37.17;;
16199;SDS011;8207;52.494;4.654;2022-12-10T15:00:11;90.93;;;38.23;;
16199;SDS011;8207;52.494;4.654;2022-12-10T15:02:43;93.27;;;38.60;;
16199;SDS011;8207;52.494;4.654;2022-12-10T15:05:15;91.00;;;36.27;;
16199;SDS011;8207;52.494;4.654;2022-12-10T15:07:47;96.40;;;37.93;;
16199;SDS011;8207;52.494;4.654;2022-12-10T15:10:20;93.30;;;35.60;;
16199;SDS011;8207;52.494;4.654;2022-12-10T15:12:50;85.63;;;36.80;;